createdAt,value
2023-04-03T00:00:58.580Z,99.90
2023-04-03T00:03:25.981Z,99.90
2023-04-03T00:05:53.470Z,99.90
2023-04-03T00:08:21.347Z,99.90
2023-04-03T00:10:49.525Z,99.90
2023-04-03T00:13:17.450Z,99.90
2023-04-03T00:15:45.549Z,99.90
2023-04-03T00:18:13.206Z,99.90
2023-04-03T00:20:41.055Z,99.90
2023-04-03T00:23:08.840Z,99.90
2023-04-03T00:25:36.739Z,99.90
2023-04-03T00:28:05.294Z,99.90
2023-04-03T00:30:33.267Z,99.90
2023-04-03T00:33:02.016Z,99.90
2023-04-03T00:35:30.437Z,99.90
2023-04-03T00:37:58.197Z,99.90
2023-04-03T00:40:28.037Z,99.90
2023-04-03T00:43:01.037Z,99.90
2023-04-03T00:45:42.410Z,99.90
2023-04-03T00:48:16.963Z,99.90
2023-04-03T00:50:45.705Z,99.90
2023-04-03T00:53:19.056Z,99.90
2023-04-03T00:55:48.636Z,99.90
2023-04-03T00:58:20.195Z,99.90
2023-04-03T01:00:57.291Z,99.90
2023-04-03T01:03:25.236Z,99.90
2023-04-03T01:05:52.733Z,99.90
2023-04-03T01:08:20.129Z,99.90
2023-04-03T01:10:47.523Z,99.90
2023-04-03T01:13:32.822Z,99.90
2023-04-03T01:16:05.776Z,99.90
2023-04-03T01:18:34.621Z,99.90
2023-04-03T01:21:39.601Z,99.90
2023-04-03T01:24:28.731Z,99.90
2023-04-03T01:26:56.649Z,99.90
2023-04-03T01:29:24.119Z,99.90
2023-04-03T01:31:57.082Z,99.90
2023-04-03T01:34:25.853Z,99.90
2023-04-03T01:36:53.847Z,99.90
2023-04-03T01:39:22.163Z,99.90
2023-04-03T01:41:50.564Z,99.90
2023-04-03T01:44:18.309Z,99.90
2023-04-03T01:46:45.905Z,99.90
2023-04-03T01:49:13.457Z,99.90
2023-04-03T01:51:40.821Z,99.90
2023-04-03T01:54:08.297Z,99.90
2023-04-03T01:56:35.632Z,99.90
2023-04-03T01:59:03.100Z,99.90
2023-04-03T02:01:30.516Z,99.90
2023-04-03T02:03:58.097Z,99.90
2023-04-03T02:06:26.366Z,99.90
2023-04-03T02:08:53.709Z,99.90
2023-04-03T02:11:21.357Z,99.90
2023-04-03T02:13:48.702Z,99.90
2023-04-03T02:16:16.100Z,99.90
2023-04-03T02:18:43.765Z,99.90
2023-04-03T02:21:11.189Z,99.90
2023-04-03T02:23:38.881Z,99.90
2023-04-03T02:26:08.513Z,99.90
2023-04-03T02:28:36.670Z,99.90
2023-04-03T02:31:05.111Z,99.90
2023-04-03T02:33:32.586Z,99.90
2023-04-03T02:36:00.453Z,99.90
2023-04-03T02:38:28.120Z,99.90
2023-04-03T02:41:01.963Z,99.90
2023-04-03T02:43:29.509Z,99.90
2023-04-03T02:45:57.146Z,99.90
2023-04-03T02:48:25.669Z,99.90
2023-04-03T02:50:53.489Z,99.90
2023-04-03T02:53:21.283Z,99.90
2023-04-03T02:55:48.811Z,99.90
2023-04-03T02:58:16.450Z,99.90
2023-04-03T03:00:44.100Z,99.90
2023-04-03T03:03:11.414Z,99.90
2023-04-03T03:05:38.820Z,99.90
2023-04-03T03:08:06.852Z,99.90
2023-04-03T03:10:34.433Z,99.90
2023-04-03T03:13:02.360Z,99.90
2023-04-03T03:15:29.840Z,99.90
2023-04-03T03:17:57.388Z,99.90
2023-04-03T03:20:24.829Z,99.90
2023-04-03T03:22:52.284Z,99.90
2023-04-03T03:25:19.751Z,99.90
2023-04-03T03:27:47.241Z,99.90
2023-04-03T03:30:14.732Z,99.90
2023-04-03T03:32:42.317Z,99.90
2023-04-03T03:35:09.909Z,99.90
2023-04-03T03:37:37.310Z,99.90
2023-04-03T03:40:04.993Z,99.90
2023-04-03T03:42:32.323Z,99.90
2023-04-03T03:44:59.816Z,99.90
2023-04-03T03:47:27.259Z,99.90
2023-04-03T03:49:54.603Z,99.90
2023-04-03T03:52:22.102Z,99.90
2023-04-03T03:54:49.456Z,99.90
2023-04-03T03:57:17.676Z,99.90
2023-04-03T03:59:45.535Z,99.90
2023-04-03T04:02:13.385Z,99.90
2023-04-03T04:04:40.782Z,99.90
2023-04-03T04:07:08.416Z,99.90
2023-04-03T04:09:35.902Z,99.90
2023-04-03T04:12:03.354Z,99.90
2023-04-03T04:14:31.070Z,99.90
2023-04-03T04:16:58.580Z,99.90
2023-04-03T04:19:26.071Z,99.90
2023-04-03T04:21:53.432Z,99.90
2023-04-03T04:24:21.041Z,99.90
2023-04-03T04:26:48.465Z,99.90
2023-04-03T04:29:16.069Z,99.90
2023-04-03T04:31:43.348Z,99.90
2023-04-03T04:34:10.840Z,99.90
2023-04-03T04:36:38.576Z,99.90
2023-04-03T04:39:06.447Z,99.90
2023-04-03T04:41:34.715Z,99.90
2023-04-03T04:44:02.169Z,99.90
2023-04-03T04:46:29.651Z,99.90
2023-04-03T04:48:57.243Z,99.90
2023-04-03T04:51:24.655Z,99.90
2023-04-03T04:53:53.586Z,99.90
2023-04-03T04:56:23.161Z,99.90
2023-04-03T04:58:50.635Z,99.90
2023-04-03T05:01:18.350Z,99.90
2023-04-03T05:03:46.113Z,99.90
2023-04-03T05:06:13.825Z,99.90
2023-04-03T05:08:41.513Z,99.90
2023-04-03T05:11:09.496Z,99.90
2023-04-03T05:13:36.975Z,99.90
2023-04-03T05:16:05.406Z,99.90
2023-04-03T05:18:33.357Z,99.90
2023-04-03T05:21:01.698Z,99.90
2023-04-03T05:23:29.251Z,99.90
2023-04-03T05:25:57.231Z,99.90
2023-04-03T05:28:25.454Z,99.90
2023-04-03T05:31:00.246Z,99.90
2023-04-03T05:33:28.399Z,99.90
2023-04-03T05:35:59.382Z,99.90
2023-04-03T05:38:27.839Z,99.90
2023-04-03T05:40:56.774Z,99.90
2023-04-03T05:43:25.665Z,99.90
2023-04-03T05:46:05.823Z,99.90
2023-04-03T05:48:33.559Z,99.90
2023-04-03T05:51:01.258Z,99.90
2023-04-03T05:53:32.060Z,99.90
2023-04-03T05:55:59.904Z,99.90
2023-04-03T05:58:29.692Z,99.90
2023-04-03T06:00:59.383Z,99.90
2023-04-03T06:03:28.954Z,99.90
2023-04-03T06:10:04.893Z,99.90
2023-04-03T06:12:34.323Z,99.90
2023-04-03T06:15:03.754Z,99.90
2023-04-03T06:17:34.314Z,99.90
2023-04-03T06:20:02.304Z,99.90
2023-04-03T06:22:34.423Z,99.90
2023-04-03T06:28:20.774Z,99.80
2023-04-03T06:31:16.268Z,99.90
2023-04-03T06:33:47.354Z,99.80
2023-04-03T06:36:22.350Z,99.90
2023-04-03T06:38:52.684Z,99.90
2023-04-03T06:41:24.966Z,99.20
2023-04-03T06:43:57.697Z,98.80
2023-04-03T06:46:31.688Z,98.30
2023-04-03T06:49:03.569Z,98.70
2023-04-03T06:51:38.721Z,98.20
2023-04-03T06:54:14.408Z,98.00
2023-04-03T06:56:43.888Z,98.80
2023-04-03T06:59:16.562Z,97.80
2023-04-03T07:08:58.034Z,96.50
2023-04-03T07:11:30.546Z,96.30
2023-04-03T07:14:05.626Z,95.60
2023-04-03T07:16:36.165Z,95.80
2023-04-03T07:19:11.387Z,95.90
2023-04-03T07:21:43.021Z,95.00
2023-04-03T07:24:16.955Z,94.40
2023-04-03T07:26:58.132Z,94.50
2023-04-03T07:29:28.310Z,94.00
2023-04-03T07:31:59.774Z,94.40
2023-04-03T07:34:28.401Z,93.70
2023-04-03T07:36:56.332Z,93.50
2023-04-03T07:40:00.721Z,93.50
2023-04-03T07:42:29.159Z,93.00
2023-04-03T07:44:57.906Z,93.60
2023-04-03T07:47:25.963Z,92.50
2023-04-03T07:49:53.712Z,92.20
2023-04-03T07:52:22.190Z,92.30
2023-04-03T07:54:50.089Z,92.40
2023-04-03T07:57:17.728Z,91.60
2023-04-03T07:59:54.412Z,91.00
2023-04-03T08:02:30.900Z,90.00
2023-04-03T08:05:04.530Z,89.80
2023-04-03T08:07:32.572Z,88.70
2023-04-03T08:10:00.321Z,90.80
2023-04-03T08:12:29.693Z,88.60
2023-04-03T08:14:57.655Z,91.00
2023-04-03T08:17:25.489Z,90.10
2023-04-03T08:19:53.924Z,90.40
2023-04-03T08:22:21.989Z,88.70
2023-04-03T08:24:58.580Z,88.80
2023-04-03T08:27:28.348Z,88.60
2023-04-03T08:30:20.729Z,88.40
2023-04-03T08:33:03.082Z,85.10
2023-04-03T08:35:31.765Z,88.90
2023-04-03T08:38:04.895Z,86.40
2023-04-03T08:41:12.913Z,86.20
2023-04-03T08:44:18.896Z,88.10
2023-04-03T08:47:05.797Z,85.40
2023-04-03T08:49:53.934Z,85.50
2023-04-03T08:52:57.757Z,84.60
2023-04-03T08:55:39.099Z,85.40
2023-04-03T08:58:13.869Z,85.90
2023-04-03T09:01:07.732Z,85.40
2023-04-03T09:03:45.195Z,85.80
2023-04-03T09:06:17.237Z,86.30
2023-04-03T09:08:51.733Z,86.50
2023-04-03T09:15:39.823Z,82.90
2023-04-03T09:18:20.969Z,82.30
2023-04-03T09:21:08.395Z,82.70
2023-04-03T09:24:09.019Z,83.00
2023-04-03T09:26:46.494Z,83.10
2023-04-03T09:29:24.818Z,82.70
2023-04-03T09:32:00.466Z,81.50
2023-04-03T09:35:32.898Z,82.60
2023-04-03T09:38:12.079Z,80.90
2023-04-03T09:40:44.839Z,82.00
2023-04-03T09:43:18.461Z,82.30
2023-04-03T09:45:47.643Z,83.10
2023-04-03T09:48:16.685Z,82.10
2023-04-03T09:51:05.644Z,81.00
2023-04-03T09:53:42.080Z,80.00
2023-04-03T09:56:19.460Z,80.00
2023-04-03T09:58:51.143Z,80.90
2023-04-03T10:01:31.202Z,80.60
2023-04-03T10:04:17.582Z,80.10
2023-04-03T10:06:48.173Z,80.30
2023-04-03T10:09:23.662Z,79.80
2023-04-03T10:12:16.573Z,80.10
2023-04-03T10:15:04.341Z,77.00
2023-04-03T10:18:11.448Z,76.10
2023-04-03T10:20:52.451Z,75.90
2023-04-03T10:23:29.721Z,74.80
2023-04-03T10:26:26.223Z,73.00
2023-04-03T10:29:04.427Z,72.90
2023-04-03T10:32:08.369Z,71.30
2023-04-03T10:34:46.763Z,71.70
2023-04-03T10:37:27.523Z,71.10
2023-04-03T10:40:00.456Z,71.90
2023-04-03T10:42:45.978Z,71.70
2023-04-03T10:45:20.116Z,69.60
2023-04-03T10:48:11.090Z,69.90
2023-04-03T10:50:46.659Z,69.90
2023-04-03T10:53:52.336Z,70.80
2023-04-03T10:57:04.444Z,69.30
2023-04-03T10:59:47.843Z,69.10
2023-04-03T11:02:49.871Z,70.00
2023-04-03T11:05:37.775Z,69.60
2023-04-03T11:08:28.843Z,71.40
2023-04-03T11:11:03.945Z,71.40
2023-04-03T11:13:56.332Z,70.10
2023-04-03T11:16:32.035Z,70.60
2023-04-03T11:19:02.938Z,70.30
2023-04-03T11:21:36.797Z,70.50
2023-04-03T11:24:11.412Z,69.40
2023-04-03T11:26:43.608Z,69.90
2023-04-03T11:29:34.364Z,70.50
2023-04-03T11:32:23.042Z,69.50
2023-04-03T11:34:54.633Z,68.40
2023-04-03T11:37:54.384Z,69.00
2023-04-03T11:40:29.208Z,69.50
2023-04-03T11:43:16.313Z,69.90
2023-04-03T11:46:08.320Z,70.10
2023-04-03T11:48:35.762Z,69.00
2023-04-03T11:51:18.734Z,69.40
2023-04-03T11:53:46.910Z,68.40
2023-04-03T11:56:29.198Z,67.80
2023-04-03T11:59:11.865Z,68.10
2023-04-03T12:01:54.100Z,68.00
2023-04-03T12:04:25.049Z,66.40
2023-04-03T12:07:19.102Z,67.40
2023-04-03T12:09:46.433Z,67.00
2023-04-03T12:12:30.858Z,68.90
2023-04-03T12:15:20.045Z,69.50
2023-04-03T12:17:48.372Z,68.70
2023-04-03T12:20:50.116Z,68.20
2023-04-03T12:23:33.794Z,68.30
2023-04-03T12:26:23.930Z,67.10
2023-04-03T12:28:54.312Z,68.30
2023-04-03T12:31:28.468Z,66.60
2023-04-03T12:34:19.388Z,67.40
2023-04-03T12:36:58.871Z,68.20
2023-04-03T12:39:52.673Z,69.70
2023-04-03T12:43:04.196Z,70.30
2023-04-03T12:45:47.121Z,69.90
2023-04-03T12:48:23.202Z,70.50
2023-04-03T12:50:51.500Z,68.60
2023-04-03T12:53:26.304Z,69.10
2023-04-03T12:56:18.462Z,70.00
2023-04-03T12:58:46.346Z,70.00
2023-04-03T13:01:19.562Z,69.00
2023-04-03T13:03:49.820Z,67.50
2023-04-03T13:06:24.656Z,69.40
2023-04-03T13:08:54.816Z,69.20
2023-04-03T13:11:23.448Z,70.30
2023-04-03T13:14:04.292Z,69.30
2023-04-03T13:16:32.836Z,70.20
2023-04-03T13:19:00.791Z,70.30
2023-04-03T13:21:31.783Z,71.80
2023-04-03T13:24:14.024Z,70.40
2023-04-03T13:26:44.077Z,70.90
2023-04-03T13:29:31.047Z,68.80
2023-04-03T13:32:01.037Z,67.90
2023-04-03T13:34:36.340Z,67.90
2023-04-03T13:37:05.523Z,68.50
2023-04-03T13:39:35.408Z,68.70
2023-04-03T13:42:24.084Z,68.30
2023-04-03T13:45:18.142Z,68.40
2023-04-03T13:47:47.552Z,68.30
2023-04-03T13:50:21.854Z,68.70
2023-04-03T13:53:02.315Z,68.60
2023-04-03T13:55:33.485Z,67.90
2023-04-03T13:58:23.129Z,69.10
2023-04-03T14:01:16.380Z,69.30
2023-04-03T14:03:59.349Z,66.40
2023-04-03T14:06:27.666Z,66.00
2023-04-03T14:08:55.187Z,67.20
2023-04-03T14:11:31.245Z,66.80
2023-04-03T14:14:05.711Z,66.60
2023-04-03T14:16:38.629Z,68.80
2023-04-03T14:19:06.312Z,68.40
2023-04-03T14:21:34.048Z,68.40
2023-04-03T14:24:01.770Z,68.50
2023-04-03T14:26:31.369Z,68.80
2023-04-03T14:28:58.852Z,67.30
2023-04-03T14:31:26.748Z,68.20
2023-04-03T14:33:54.346Z,68.70
2023-04-03T14:36:27.279Z,67.90
2023-04-03T14:38:55.911Z,67.40
2023-04-03T14:41:25.227Z,67.10
2023-04-03T14:43:53.080Z,67.30
2023-04-03T14:46:38.661Z,67.80
2023-04-03T14:49:26.393Z,68.20
2023-04-03T14:51:54.049Z,67.50
2023-04-03T14:54:26.753Z,67.10
2023-04-03T14:56:56.588Z,68.20
2023-04-03T14:59:24.446Z,67.10
2023-04-03T15:01:51.884Z,68.30
2023-04-03T15:04:21.947Z,68.40
2023-04-03T15:06:50.500Z,67.60
2023-04-03T15:09:28.289Z,67.00
2023-04-03T15:11:56.723Z,66.10
2023-04-03T15:14:35.832Z,66.60
2023-04-03T15:17:17.408Z,65.60
2023-04-03T15:19:45.591Z,65.60
2023-04-03T15:22:19.536Z,67.00
2023-04-03T15:24:47.526Z,66.00
2023-04-03T15:27:16.500Z,66.40
2023-04-03T15:29:45.980Z,66.80
2023-04-03T15:32:14.216Z,66.20
2023-04-03T15:34:41.914Z,66.30
2023-04-03T15:37:09.558Z,67.70
2023-04-03T15:39:36.925Z,67.00
2023-04-03T15:42:07.333Z,65.90
2023-04-03T15:44:36.328Z,66.70
2023-04-03T15:47:04.421Z,66.70
2023-04-03T15:49:35.007Z,65.70
2023-04-03T15:52:02.665Z,67.10
2023-04-03T15:54:30.639Z,67.50
2023-04-03T15:56:58.559Z,66.60
2023-04-03T15:59:26.023Z,67.10
2023-04-03T16:01:53.822Z,67.30
2023-04-03T16:04:22.221Z,66.50
2023-04-03T16:06:50.704Z,66.00
2023-04-03T16:09:18.642Z,67.00
2023-04-03T16:11:46.110Z,66.10
2023-04-03T16:14:13.653Z,67.50
2023-04-03T16:16:41.269Z,67.70
2023-04-03T16:19:09.814Z,67.00
2023-04-03T16:21:37.364Z,67.50
2023-04-03T16:24:05.452Z,66.90
2023-04-03T16:26:32.812Z,67.90
2023-04-03T16:29:00.570Z,69.30
2023-04-03T16:31:29.386Z,67.80
2023-04-03T16:33:57.602Z,68.70
2023-04-03T16:36:26.871Z,68.40
2023-04-03T16:38:54.637Z,69.80
2023-04-03T16:41:22.250Z,68.40
2023-04-03T16:43:51.218Z,69.00
2023-04-03T16:46:18.882Z,67.70
2023-04-03T16:48:46.326Z,68.00
2023-04-03T16:51:14.469Z,70.20
2023-04-03T16:53:41.898Z,68.90
2023-04-03T16:56:09.534Z,69.40
2023-04-03T16:58:36.929Z,70.20
2023-04-03T17:01:13.602Z,70.40
2023-04-03T17:03:41.520Z,69.60
2023-04-03T17:06:09.133Z,71.10
2023-04-03T17:08:36.587Z,71.50
2023-04-03T17:11:04.062Z,70.60
2023-04-03T17:13:33.209Z,70.90
2023-04-03T17:16:01.269Z,72.80
2023-04-03T17:18:28.769Z,71.80
2023-04-03T17:20:57.689Z,71.70
2023-04-03T17:23:26.898Z,72.40
2023-04-03T17:25:55.285Z,71.60
2023-04-03T17:28:28.321Z,71.90
2023-04-03T17:30:57.275Z,71.70
2023-04-03T17:33:25.020Z,72.10
2023-04-03T17:35:52.809Z,73.10
2023-04-03T17:38:20.240Z,72.00
2023-04-03T17:40:47.600Z,73.40
2023-04-03T17:43:16.293Z,73.80
2023-04-03T17:45:43.809Z,74.30
2023-04-03T17:48:11.313Z,74.10
2023-04-03T17:50:38.727Z,73.30
2023-04-03T17:53:06.230Z,74.10
2023-04-03T17:55:33.611Z,73.80
2023-04-03T17:58:01.173Z,74.60
2023-04-03T18:00:28.542Z,75.70
2023-04-03T18:02:56.538Z,73.90
2023-04-03T18:05:28.337Z,74.40
2023-04-03T18:07:57.757Z,75.40
2023-04-03T18:10:25.436Z,75.60
2023-04-03T18:12:53.958Z,74.80
2023-04-03T18:15:21.422Z,75.50
2023-04-03T18:17:50.507Z,76.80
2023-04-03T18:20:18.278Z,77.40
2023-04-03T18:22:45.788Z,77.00
2023-04-03T18:25:14.398Z,76.00
2023-04-03T18:27:43.839Z,76.10
2023-04-03T18:30:15.066Z,77.10
2023-04-03T18:32:43.252Z,77.00
2023-04-03T18:35:11.739Z,76.50
2023-04-03T18:37:39.169Z,76.90
2023-04-03T18:40:07.386Z,77.80
2023-04-03T19:09:45.916Z,99.90
2023-04-03T19:12:13.300Z,99.90
2023-04-03T19:14:40.697Z,99.90
2023-04-03T19:19:36.444Z,99.90
2023-04-03T19:22:03.933Z,99.90
2023-04-03T19:24:31.383Z,99.90
2023-04-03T19:26:58.803Z,99.90
2023-04-03T19:29:26.172Z,99.90
2023-04-03T19:31:53.753Z,99.90
2023-04-03T19:34:21.349Z,90.80
2023-04-03T19:36:49.520Z,99.90
2023-04-03T19:39:17.101Z,81.80
2023-04-03T19:41:46.277Z,82.40
2023-04-03T19:44:13.646Z,82.40
2023-04-03T19:46:41.249Z,82.70
2023-04-03T19:49:19.851Z,82.70
2023-04-03T19:51:47.210Z,82.70
2023-04-03T19:54:14.484Z,83.60
2023-04-03T19:56:41.901Z,84.50
2023-04-03T19:59:09.285Z,84.00
2023-04-03T20:01:36.833Z,83.40
2023-04-03T20:04:04.631Z,82.90
2023-04-03T20:06:32.439Z,82.80
2023-04-03T20:09:00.165Z,82.70
2023-04-03T20:11:28.134Z,82.80
2023-04-03T20:13:55.847Z,84.10
2023-04-03T20:16:25.872Z,83.30
2023-04-03T20:18:55.827Z,83.50
2023-04-03T20:21:34.063Z,84.30
2023-04-03T20:24:02.720Z,85.50
2023-04-03T20:26:32.839Z,83.80
2023-04-03T20:29:03.048Z,84.10
2023-04-03T20:31:32.860Z,83.40
2023-04-03T20:34:00.457Z,84.00
2023-04-03T20:36:29.782Z,83.40
2023-04-03T20:38:57.799Z,83.90
2023-04-03T20:41:26.251Z,83.80
2023-04-03T20:43:53.689Z,84.10
2023-04-03T20:46:22.947Z,85.30
2023-04-03T20:48:50.640Z,84.60
2023-04-03T20:51:20.224Z,85.80
2023-04-03T20:53:48.270Z,84.30
2023-04-03T20:56:16.652Z,86.50
2023-04-03T20:58:46.504Z,84.50
2023-04-03T21:01:23.063Z,85.10
2023-04-03T21:03:55.209Z,84.80
2023-04-03T21:07:03.218Z,86.60
2023-04-03T21:10:08.435Z,85.30
2023-04-03T21:13:13.291Z,86.10
2023-04-03T21:15:46.634Z,85.90
2023-04-03T21:18:15.745Z,85.60
2023-04-03T21:20:47.581Z,85.70
2023-04-03T21:23:15.863Z,85.50
2023-04-03T21:25:43.544Z,85.60
2023-04-03T21:28:11.429Z,85.20
2023-04-03T21:30:38.826Z,85.50
2023-04-03T21:33:06.240Z,86.60
2023-04-03T21:35:33.796Z,86.30
2023-04-03T21:38:01.183Z,86.50
2023-04-03T21:40:28.653Z,86.40
2023-04-03T21:42:56.315Z,87.50
2023-04-03T21:45:23.781Z,87.10
2023-04-03T21:47:51.856Z,87.50
2023-04-03T21:50:19.525Z,87.40
2023-04-03T21:52:47.033Z,87.50
2023-04-03T21:55:15.524Z,89.60
2023-04-03T21:57:43.780Z,89.20
2023-04-03T22:00:11.698Z,90.10
2023-04-03T22:02:45.171Z,91.10
2023-04-03T22:05:12.704Z,89.10
2023-04-03T22:07:40.176Z,90.70
2023-04-03T22:10:08.053Z,89.50
2023-04-03T22:12:35.635Z,90.30
2023-04-03T22:15:03.098Z,90.30
2023-04-03T22:17:31.314Z,90.20
2023-04-03T22:19:58.841Z,90.30
2023-04-03T22:22:26.632Z,90.30
2023-04-03T22:24:54.135Z,89.50
2023-04-03T22:27:21.526Z,89.30
2023-04-03T22:29:49.014Z,89.60
2023-04-03T22:32:16.485Z,90.30
2023-04-03T22:34:43.993Z,89.40
2023-04-03T22:37:12.159Z,90.30
2023-04-03T22:39:39.610Z,91.50
2023-04-03T22:42:07.853Z,91.00
2023-04-03T22:44:36.671Z,90.90
2023-04-03T22:47:04.223Z,90.70
2023-04-03T22:49:32.310Z,90.60
2023-04-03T22:52:00.126Z,90.10
2023-04-03T22:54:27.658Z,90.40
2023-04-03T22:56:55.584Z,90.30
2023-04-03T22:59:22.900Z,90.10
2023-04-03T23:01:50.536Z,90.30
2023-04-03T23:04:18.548Z,93.70
2023-04-03T23:06:45.908Z,95.20
2023-04-03T23:09:14.719Z,94.50
2023-04-03T23:11:43.046Z,94.50
2023-04-03T23:14:10.468Z,93.80
2023-04-03T23:16:38.037Z,94.30
2023-04-03T23:19:05.940Z,94.50
2023-04-03T23:21:34.039Z,94.30
2023-04-03T23:31:26.093Z,99.90
2023-04-03T23:33:53.438Z,99.90
2023-04-03T23:36:21.359Z,99.90
2023-04-03T23:38:49.136Z,99.00
2023-04-03T23:41:16.808Z,90.20
2023-04-03T23:43:46.604Z,90.30
2023-04-03T23:51:09.519Z,90.30
2023-04-03T23:53:36.805Z,90.60
2023-04-03T23:56:09.774Z,90.50
2023-04-03T23:58:37.377Z,90.40
